CMB865 Details

Departure: Elmendorf Air Force Base (PAED)
Arrival: Travis Air Force Base (KSUU)
Route: TED V440 MDO J804R FRIED TR19 YZP Q801 YAZ J501 TOU ELMAA Q1 TOCOS SUTHU1
Notes: USTRANSCOM CONTRACT FLIGHT


Current Weather Information
PAED 190756Z AUTO 00000KT 10SM CLR 04/01 A2953 RMK AO2 SLPNO T00380005
KSUU 190758Z AUTO 23011KT 10SM CLR 12/09 A2991 RMK AO2 SLP135 T01230091 402480052 $